Time;durP1;ratioP1;P1;durP2;ratioP2;P2;SDS_P1;SDS_P2;PMS_P1;PMS_P2;Temp;Humidity;BMP_temperature;BMP_pressure;BME280_temperature;BME280_humidity;BME280_pressure;Samples;Min_cycle;Max_cycle;Signal;HPM_P1;HPM_P2
2023/09/26 00:00:14;;;;;;;13.75;7.13;;;17.70;76.50;;;;;;5030842;28;20525;-69
2023/09/26 00:02:40;;;;;;;11.52;6.40;;;17.70;76.40;;;;;;5042906;28;20466;-69
2023/09/26 00:05:09;;;;;;;11.52;7.40;;;17.70;76.40;;;;;;5026748;28;20037;-69
2023/09/26 00:07:36;;;;;;;11.63;6.15;;;17.70;76.40;;;;;;5031063;28;20466;-69
2023/09/26 00:10:03;;;;;;;10.73;6.22;;;17.70;77.00;;;;;;5044187;28;20152;-69
2023/09/26 00:12:29;;;;;;;10.23;6.50;;;17.70;76.40;;;;;;5030426;28;20454;-69
2023/09/26 00:14:55;;;;;;;9.02;5.82;;;17.70;76.50;;;;;;5031042;28;20076;-69
2023/09/26 00:17:21;;;;;;;10.13;6.60;;;17.60;76.40;;;;;;5026984;28;20116;-69
2023/09/26 00:19:46;;;;;;;10.05;6.50;;;17.60;76.40;;;;;;5028685;28;20021;-69
2023/09/26 00:22:12;;;;;;;11.32;6.70;;;17.60;76.50;;;;;;5029392;28;20413;-69
2023/09/26 00:24:38;;;;;;;12.02;7.00;;;17.60;76.50;;;;;;5026778;28;20084;-69
2023/09/26 00:27:03;;;;;;;9.98;6.50;;;17.60;76.50;;;;;;5030218;28;20017;-69
2023/09/26 00:29:31;;;;;;;10.38;6.30;;;17.50;76.50;;;;;;5042195;28;20034;-69
2023/09/26 00:31:59;;;;;;;12.45;6.57;;;17.50;76.50;;;;;;5028336;28;20033;-69
2023/09/26 00:34:25;;;;;;;10.15;6.57;;;17.50;76.50;;;;;;5044100;28;20044;-69
2023/09/26 00:36:51;;;;;;;12.07;6.78;;;17.40;76.50;;;;;;5030202;28;20116;-69
2023/09/26 00:39:17;;;;;;;9.73;6.30;;;17.40;76.50;;;;;;5030414;28;20029;-69
2023/09/26 00:41:43;;;;;;;9.75;5.97;;;17.40;76.60;;;;;;5030262;28;20036;-69
2023/09/26 00:44:11;;;;;;;12.43;6.70;;;17.40;76.70;;;;;;5045464;28;20021;-69
2023/09/26 00:46:39;;;;;;;11.85;6.38;;;17.30;76.60;;;;;;5045533;28;20346;-69
2023/09/26 00:49:06;;;;;;;10.18;6.10;;;17.30;76.70;;;;;;5028032;28;20037;-69
2023/09/26 00:51:32;;;;;;;12.93;6.45;;;17.20;76.70;;;;;;5027687;28;20022;-69
2023/09/26 00:53:59;;;;;;;12.80;6.60;;;17.20;76.60;;;;;;5029868;28;20045;-69
2023/09/26 00:56:25;;;;;;;11.98;6.53;;;17.20;76.70;;;;;;5030111;28;20109;-69
2023/09/26 00:58:51;;;;;;;11.93;6.95;;;17.20;76.60;;;;;;5043222;28;20037;-69
2023/09/26 01:01:22;;;;;;;11.25;6.78;;;17.20;76.70;;;;;;5045845;28;20032;-69
2023/09/26 01:03:48;;;;;;;11.50;6.47;;;17.10;76.70;;;;;;5027494;28;20098;-69
2023/09/26 01:06:15;;;;;;;10.20;6.25;;;17.10;76.70;;;;;;5010865;28;20121;-69
2023/09/26 01:08:41;;;;;;;10.65;7.00;;;17.10;76.70;;;;;;5024279;28;20036;-69
2023/09/26 01:11:08;;;;;;;11.65;6.68;;;17.10;76.80;;;;;;5027444;28;20017;-69
2023/09/26 01:13:34;;;;;;;10.65;6.13;;;17.10;77.50;;;;;;5029459;28;20026;-69
2023/09/26 01:16:16;;;;;;;14.52;7.18;;;17.10;76.90;;;;;;5045137;28;20254;-69
2023/09/26 01:18:42;;;;;;;10.48;6.38;;;17.10;76.90;;;;;;5012054;28;20021;-69
2023/09/26 01:21:08;;;;;;;12.48;7.10;;;17.00;76.90;;;;;;5031263;28;20021;-69
2023/09/26 01:23:36;;;;;;;11.73;7.20;;;17.00;76.90;;;;;;5036820;28;20406;-69
2023/09/26 01:26:02;;;;;;;12.00;6.65;;;17.00;77.00;;;;;;5043056;28;20025;-68
2023/09/26 01:28:28;;;;;;;11.65;7.10;;;17.00;77.00;;;;;;5043962;28;20093;-69
2023/09/26 01:30:54;;;;;;;10.88;6.43;;;17.00;77.20;;;;;;5026567;28;20027;-69
2023/09/26 01:33:21;;;;;;;12.25;6.70;;;17.00;77.10;;;;;;5027324;28;20431;-69
2023/09/26 01:35:48;;;;;;;10.15;6.63;;;16.90;77.00;;;;;;5041955;28;20064;-68
2023/09/26 01:38:14;;;;;;;12.18;6.97;;;16.90;77.10;;;;;;5029900;28;20033;-70
2023/09/26 01:40:43;;;;;;;12.70;6.65;;;16.90;77.10;;;;;;5029518;28;20362;-70
2023/09/26 01:43:09;;;;;;;10.90;6.15;;;16.90;77.10;;;;;;5028624;28;20402;-69
2023/09/26 01:45:34;;;;;;;10.30;5.97;;;16.90;77.20;;;;;;5023319;28;20033;-68
2023/09/26 01:48:01;;;;;;;9.25;5.80;;;16.90;77.20;;;;;;5030420;28;20017;-69
2023/09/26 01:50:28;;;;;;;9.52;6.00;;;16.80;77.20;;;;;;5046557;28;20033;-68
2023/09/26 01:52:53;;;;;;;10.18;6.07;;;16.80;77.30;;;;;;5026654;28;20033;-68
2023/09/26 01:55:20;;;;;;;10.88;6.10;;;16.80;77.30;;;;;;5043505;28;20099;-69
2023/09/26 01:57:47;;;;;;;9.40;5.28;;;16.80;77.30;;;;;;5023800;28;20032;-69
2023/09/26 02:00:13;;;;;;;10.65;5.65;;;16.80;77.30;;;;;;5046370;28;20112;-69
2023/09/26 02:02:44;;;;;;;10.43;6.10;;;16.80;77.30;;;;;;5031089;28;20025;-70
2023/09/26 02:05:12;;;;;;;9.57;5.57;;;16.80;77.40;;;;;;5024681;28;20040;-69
2023/09/26 02:07:38;;;;;;;9.30;5.50;;;16.70;77.40;;;;;;5028289;28;20025;-70
2023/09/26 02:10:05;;;;;;;10.15;5.18;;;16.70;77.40;;;;;;5033252;28;20112;-69
2023/09/26 02:12:32;;;;;;;9.85;5.32;;;16.70;77.40;;;;;;5014947;28;20029;-69
2023/09/26 02:15:00;;;;;;;11.50;5.78;;;16.80;77.50;;;;;;5039016;28;20042;-69
2023/09/26 02:17:26;;;;;;;10.65;5.50;;;16.70;77.50;;;;;;5029874;28;20366;-69
2023/09/26 02:19:52;;;;;;;8.90;5.38;;;16.70;77.50;;;;;;5041759;28;20041;-69
2023/09/26 02:22:18;;;;;;;10.80;5.72;;;16.70;77.50;;;;;;5021618;28;20040;-69
2023/09/26 02:24:43;;;;;;;11.80;5.72;;;16.70;77.50;;;;;;5026890;28;20346;-69
2023/09/26 02:27:10;;;;;;;9.82;5.90;;;16.70;77.50;;;;;;5028925;28;20030;-69
2023/09/26 02:29:35;;;;;;;10.30;5.80;;;16.70;77.50;;;;;;5031156;28;20595;-69
2023/09/26 02:32:01;;;;;;;10.50;5.50;;;16.70;77.50;;;;;;5044407;28;20026;-69
2023/09/26 02:34:27;;;;;;;9.57;5.85;;;16.70;77.60;;;;;;5029818;28;20033;-69
2023/09/26 02:36:53;;;;;;;10.10;5.72;;;16.70;77.60;;;;;;5027380;28;20112;-69
2023/09/26 02:39:19;;;;;;;10.23;5.80;;;16.70;77.70;;;;;;5025487;28;20172;-69
2023/09/26 02:41:44;;;;;;;9.40;5.65;;;16.70;77.70;;;;;;5029659;28;20029;-69
2023/09/26 02:44:10;;;;;;;10.70;6.03;;;16.70;77.70;;;;;;5030129;28;20032;-69
2023/09/26 02:46:36;;;;;;;9.98;5.57;;;16.60;77.70;;;;;;5025550;28;20099;-69
2023/09/26 02:49:03;;;;;;;9.48;5.40;;;16.60;77.70;;;;;;5043206;28;20025;-69
2023/09/26 02:51:30;;;;;;;10.60;6.22;;;16.60;77.70;;;;;;5028795;28;20032;-69
2023/09/26 02:53:56;;;;;;;11.07;6.03;;;16.60;77.80;;;;;;5028770;28;20339;-69
2023/09/26 02:56:22;;;;;;;9.73;6.05;;;16.60;77.80;;;;;;5024241;28;20034;-69
2023/09/26 02:58:48;;;;;;;9.82;5.90;;;16.60;77.80;;;;;;5031564;28;20025;-69
2023/09/26 03:01:18;;;;;;;9.30;6.13;;;16.60;77.80;;;;;;5044677;28;20039;-69
2023/09/26 03:03:44;;;;;;;9.73;6.53;;;16.60;77.80;;;;;;5030280;28;20053;-69
2023/09/26 03:06:10;;;;;;;9.60;6.00;;;16.50;77.80;;;;;;5020405;28;20523;-69
2023/09/26 03:08:35;;;;;;;10.50;5.80;;;16.50;77.70;;;;;;5025529;28;20037;-69
2023/09/26 03:11:02;;;;;;;10.15;6.55;;;16.50;77.80;;;;;;5024850;28;20017;-69
2023/09/26 03:13:32;;;;;;;11.70;6.22;;;16.50;77.80;;;;;;5030533;28;20112;-69
2023/09/26 03:15:59;;;;;;;10.63;7.25;;;16.50;77.90;;;;;;5044084;28;20045;-69
2023/09/26 03:18:26;;;;;;;10.30;6.47;;;16.50;77.90;;;;;;5033679;28;20033;-69
2023/09/26 03:20:52;;;;;;;11.10;7.03;;;16.40;77.80;;;;;;5033292;28;20121;-68
2023/09/26 03:23:22;;;;;;;10.60;7.03;;;16.50;77.90;;;;;;5031507;28;20013;-69
2023/09/26 03:25:48;;;;;;;10.30;6.22;;;16.50;77.90;;;;;;5033358;28;20014;-70
2023/09/26 03:28:14;;;;;;;9.60;6.20;;;16.50;77.80;;;;;;5049823;28;20326;-68
2023/09/26 03:30:42;;;;;;;9.68;6.60;;;16.40;77.80;;;;;;5033149;28;20032;-68
2023/09/26 03:33:08;;;;;;;10.43;6.38;;;16.40;77.80;;;;;;5031056;28;20098;-69
2023/09/26 03:35:34;;;;;;;10.57;6.20;;;16.40;77.80;;;;;;5046409;28;20466;-69
2023/09/26 03:38:00;;;;;;;9.88;6.82;;;16.40;77.80;;;;;;5027495;28;20056;-69
2023/09/26 03:40:26;;;;;;;11.23;6.90;;;16.40;77.80;;;;;;5010865;28;20120;-68
2023/09/26 03:42:52;;;;;;;10.63;7.00;;;16.40;77.80;;;;;;5028555;28;20449;-69
2023/09/26 03:45:18;;;;;;;10.10;6.97;;;16.40;77.80;;;;;;5029812;28;20025;-69
2023/09/26 03:47:44;;;;;;;9.13;6.40;;;16.30;77.80;;;;;;5049829;28;20027;-69
2023/09/26 03:50:10;;;;;;;10.45;6.57;;;16.30;77.80;;;;;;5033495;28;20056;-69
2023/09/26 03:52:35;;;;;;;11.20;6.72;;;16.30;77.80;;;;;;5032041;28;20463;-69
2023/09/26 03:55:02;;;;;;;10.70;7.22;;;16.30;77.90;;;;;;5031238;28;20025;-69
2023/09/26 03:57:32;;;;;;;11.93;7.10;;;16.30;77.80;;;;;;5039406;28;20029;-69
2023/09/26 03:59:58;;;;;;;10.05;7.00;;;16.20;77.80;;;;;;5031582;28;20052;-69
2023/09/26 04:02:23;;;;;;;11.15;7.25;;;16.20;77.80;;;;;;5028939;28;20048;-69
2023/09/26 04:04:49;;;;;;;10.07;6.60;;;16.20;77.80;;;;;;5031270;28;20022;-69
2023/09/26 04:07:15;;;;;;;9.80;6.38;;;16.20;77.80;;;;;;5031221;28;20083;-69
2023/09/26 04:09:40;;;;;;;11.55;7.32;;;16.20;77.80;;;;;;5033680;28;20500;-69
2023/09/26 04:12:06;;;;;;;10.52;6.93;;;16.20;77.80;;;;;;5033380;28;20485;-68
2023/09/26 04:14:32;;;;;;;11.15;6.90;;;16.10;77.70;;;;;;5029025;28;20099;-69
2023/09/26 04:16:58;;;;;;;11.73;7.68;;;16.20;77.80;;;;;;5033252;28;20036;-69
2023/09/26 04:19:24;;;;;;;12.07;7.20;;;16.20;77.80;;;;;;5047048;28;20036;-69
2023/09/26 04:21:53;;;;;;;10.10;7.45;;;16.10;77.70;;;;;;5031217;28;20092;-69
2023/09/26 04:24:19;;;;;;;10.30;7.43;;;16.10;77.70;;;;;;5029787;28;20041;-69
2023/09/26 04:26:45;;;;;;;12.02;6.55;;;16.10;77.70;;;;;;5030716;28;20025;-69
2023/09/26 04:29:11;;;;;;;10.95;7.18;;;16.10;77.80;;;;;;5029646;28;20033;-69
2023/09/26 04:31:37;;;;;;;10.27;6.93;;;16.00;77.70;;;;;;5026896;28;20029;-69
2023/09/26 04:34:03;;;;;;;10.60;7.65;;;16.00;77.80;;;;;;5033242;28;20044;-69
2023/09/26 04:36:29;;;;;;;12.13;6.85;;;16.00;77.80;;;;;;5032876;28;20033;-69
2023/09/26 04:38:55;;;;;;;10.30;6.10;;;16.00;77.80;;;;;;5033618;28;20026;-69
2023/09/26 04:41:21;;;;;;;9.48;6.40;;;16.00;77.80;;;;;;5032878;28;20030;-69
2023/09/26 04:43:47;;;;;;;13.65;7.50;;;16.00;77.90;;;;;;5028897;28;20021;-69
2023/09/26 04:46:14;;;;;;;11.70;7.53;;;16.00;77.90;;;;;;5032306;28;20040;-69
2023/09/26 04:48:42;;;;;;;10.23;7.05;;;16.00;77.90;;;;;;5029326;28;20079;-70
2023/09/26 04:51:09;;;;;;;11.75;6.57;;;16.00;77.90;;;;;;5026895;28;20036;-68
2023/09/26 04:53:35;;;;;;;12.40;7.32;;;16.00;77.90;;;;;;5029816;28;20037;-68
2023/09/26 04:56:04;;;;;;;9.93;6.60;;;16.00;77.90;;;;;;5031504;28;20075;-69
2023/09/26 04:58:32;;;;;;;10.18;6.45;;;16.00;77.90;;;;;;5030801;28;20040;-69
2023/09/26 05:01:02;;;;;;;10.07;6.40;;;16.00;77.90;;;;;;5031084;28;20029;-69
2023/09/26 05:03:29;;;;;;;13.13;6.90;;;15.90;77.80;;;;;;5033075;28;20111;-69
2023/09/26 05:05:54;;;;;;;10.68;7.00;;;16.00;77.90;;;;;;5025503;28;20025;-69
2023/09/26 05:08:20;;;;;;;10.80;6.65;;;16.00;77.80;;;;;;5030984;28;20022;-69
2023/09/26 05:10:48;;;;;;;10.85;7.30;;;16.00;77.80;;;;;;5029671;28;20025;-68
2023/09/26 05:13:15;;;;;;;11.70;6.80;;;15.90;77.80;;;;;;5030394;28;20028;-68
2023/09/26 05:15:40;;;;;;;12.07;7.47;;;15.90;77.80;;;;;;5027085;28;20506;-69
2023/09/26 05:18:06;;;;;;;14.00;7.18;;;15.90;77.80;;;;;;5027040;28;20111;-67
2023/09/26 05:20:32;;;;;;;10.95;7.18;;;15.90;77.80;;;;;;5031566;28;20061;-67
2023/09/26 05:23:00;;;;;;;11.25;6.53;;;15.90;77.80;;;;;;5027564;28;20082;-67
2023/09/26 05:25:26;;;;;;;10.50;6.55;;;15.90;77.90;;;;;;5027456;28;20116;-67
2023/09/26 05:27:52;;;;;;;9.90;6.47;;;15.90;77.80;;;;;;5031431;28;20044;-67
2023/09/26 05:30:18;;;;;;;12.60;7.65;;;15.90;77.80;;;;;;5025878;28;20037;-67
2023/09/26 05:32:44;;;;;;;11.40;7.13;;;15.90;77.80;;;;;;5024541;28;20109;-67
2023/09/26 05:35:10;;;;;;;10.50;7.03;;;15.90;78.50;;;;;;5031263;28;20479;-68
2023/09/26 05:37:37;;;;;;;11.85;7.07;;;15.90;77.90;;;;;;5028927;28;20057;-68
2023/09/26 05:40:09;;;;;;;12.10;7.13;;;15.90;77.90;;;;;;5030539;28;20033;-68
2023/09/26 05:42:39;;;;;;;10.30;6.72;;;15.90;77.90;;;;;;5033557;28;20364;-70
2023/09/26 05:45:06;;;;;;;11.65;7.13;;;15.90;77.80;;;;;;5032473;28;20026;-70
2023/09/26 05:47:32;;;;;;;10.73;6.43;;;15.90;77.70;;;;;;5032588;28;20438;-71
2023/09/26 05:49:58;;;;;;;11.65;7.47;;;15.90;77.70;;;;;;5032972;28;20092;-71
2023/09/26 05:52:24;;;;;;;12.90;7.10;;;16.00;77.70;;;;;;5045788;28;20025;-68
2023/09/26 05:54:50;;;;;;;13.48;7.47;;;16.00;77.70;;;;;;5034169;28;20033;-68
2023/09/26 05:57:16;;;;;;;9.95;7.10;;;16.00;77.70;;;;;;5032888;28;20403;-69
2023/09/26 05:59:42;;;;;;;11.35;6.85;;;16.00;77.60;;;;;;5037260;28;20113;-69
2023/09/26 06:02:13;;;;;;;12.55;7.35;;;16.10;77.60;;;;;;5039096;28;20507;-69
2023/09/26 06:04:42;;;;;;;11.95;7.55;;;16.10;77.50;;;;;;5038923;28;20383;-68
2023/09/26 06:07:09;;;;;;;10.82;7.38;;;16.10;77.40;;;;;;5031565;28;20048;-68
2023/09/26 06:09:36;;;;;;;11.13;7.93;;;16.10;77.40;;;;;;5047596;28;20026;-68
2023/09/26 06:12:03;;;;;;;11.70;7.47;;;16.10;77.30;;;;;;5043510;28;20025;-69
2023/09/26 06:14:29;;;;;;;12.52;7.90;;;16.20;77.30;;;;;;5030370;28;20026;-71
2023/09/26 06:16:55;;;;;;;13.15;7.80;;;16.20;77.30;;;;;;5025086;28;20033;-71
2023/09/26 06:19:21;;;;;;;12.45;7.43;;;16.20;77.30;;;;;;5028608;28;20136;-71
2023/09/26 06:21:46;;;;;;;12.57;7.10;;;16.20;77.30;;;;;;5027610;28;20450;-70
2023/09/26 06:24:12;;;;;;;13.52;8.38;;;16.20;77.20;;;;;;5042947;28;20034;-71
2023/09/26 06:26:38;;;;;;;12.93;8.25;;;16.20;77.20;;;;;;5030827;28;20108;-71
2023/09/26 06:29:04;;;;;;;12.63;8.05;;;16.20;77.20;;;;;;5032279;28;20041;-70
2023/09/26 06:31:29;;;;;;;12.90;8.55;;;16.30;77.20;;;;;;5033708;28;20033;-71
2023/09/26 06:33:59;;;;;;;13.35;7.90;;;16.30;77.10;;;;;;5049348;28;20033;-70
2023/09/26 06:36:30;;;;;;;12.23;8.10;;;16.30;77.10;;;;;;5032835;28;20361;-70
2023/09/26 06:38:56;;;;;;;14.93;8.13;;;16.30;77.10;;;;;;5032971;28;20118;-70
2023/09/26 06:41:22;;;;;;;13.02;8.32;;;16.40;77.10;;;;;;5032773;28;20276;-71
2023/09/26 06:43:48;;;;;;;16.48;9.20;;;16.30;77.00;;;;;;5032702;28;20040;-70
2023/09/26 06:46:14;;;;;;;13.55;8.52;;;16.40;76.90;;;;;;5034885;28;20025;-70
2023/09/26 06:48:41;;;;;;;12.48;8.48;;;16.40;76.90;;;;;;5037198;28;20037;-70
2023/09/26 06:51:08;;;;;;;11.90;8.18;;;16.50;76.90;;;;;;5037743;28;20029;-70
2023/09/26 06:53:35;;;;;;;12.93;7.93;;;16.50;76.90;;;;;;5043243;28;20037;-70
2023/09/26 06:56:03;;;;;;;10.98;8.27;;;16.50;76.70;;;;;;5043944;28;20035;-71
2023/09/26 06:58:29;;;;;;;13.10;9.20;;;16.50;76.50;;;;;;5041273;28;20083;-71
2023/09/26 07:00:55;;;;;;;12.02;8.52;;;16.50;76.40;;;;;;5057137;28;20124;-71
2023/09/26 07:03:20;;;;;;;11.70;8.60;;;16.50;76.40;;;;;;5056060;28;20112;-71
2023/09/26 07:05:47;;;;;;;11.98;8.45;;;16.50;76.40;;;;;;5042371;28;20040;-70
2023/09/26 07:08:14;;;;;;;13.75;8.25;;;16.60;76.30;;;;;;5051977;28;20068;-70
2023/09/26 07:10:40;;;;;;;11.90;8.82;;;16.60;76.20;;;;;;5056252;28;20033;-71
2023/09/26 07:13:06;;;;;;;13.00;8.45;;;16.70;76.20;;;;;;5055779;28;20381;-70
2023/09/26 07:15:32;;;;;;;13.25;9.05;;;16.70;76.00;;;;;;5041625;28;20370;-71
2023/09/26 07:17:59;;;;;;;11.65;8.30;;;16.80;76.00;;;;;;5056797;28;20048;-71
2023/09/26 07:20:25;;;;;;;14.20;8.48;;;16.80;75.90;;;;;;5055684;28;20043;-70
2023/09/26 07:22:51;;;;;;;12.75;8.35;;;16.90;75.80;;;;;;5047873;28;20025;-70
2023/09/26 07:25:17;;;;;;;14.55;8.98;;;16.90;75.70;;;;;;5035994;28;20086;-71
2023/09/26 07:27:42;;;;;;;13.45;7.82;;;16.90;75.50;;;;;;5055659;28;20036;-71
2023/09/26 07:30:11;;;;;;;12.70;7.72;;;17.00;75.40;;;;;;5055899;28;20032;-71
2023/09/26 07:32:37;;;;;;;12.77;8.27;;;17.10;75.30;;;;;;5056313;28;20021;-71
2023/09/26 07:35:03;;;;;;;11.88;8.10;;;17.10;75.10;;;;;;5052696;28;20412;-70
2023/09/26 07:37:30;;;;;;;12.20;8.15;;;17.20;75.00;;;;;;5036268;28;20048;-71
2023/09/26 07:39:56;;;;;;;18.90;8.63;;;17.30;74.80;;;;;;5037508;28;20033;-71
2023/09/26 07:42:22;;;;;;;14.07;8.20;;;17.40;74.70;;;;;;5030447;28;20025;-70
2023/09/26 07:44:48;;;;;;;14.20;7.90;;;17.40;74.60;;;;;;5037242;28;20177;-70
2023/09/26 07:47:14;;;;;;;12.85;7.82;;;17.40;74.40;;;;;;5033088;28;20148;-69
2023/09/26 07:49:40;;;;;;;14.23;8.65;;;17.50;74.30;;;;;;5044678;28;20025;-69
2023/09/26 07:52:07;;;;;;;12.07;8.77;;;17.50;74.20;;;;;;5030925;28;20026;-70
2023/09/26 07:54:33;;;;;;;15.32;8.13;;;17.60;74.20;;;;;;5033585;28;20037;-70
2023/09/26 07:56:58;;;;;;;12.00;6.75;;;17.70;74.00;;;;;;5029539;28;20131;-69
2023/09/26 07:59:24;;;;;;;11.45;7.07;;;17.70;73.50;;;;;;5040488;28;20115;-69
2023/09/26 08:01:50;;;;;;;11.07;7.15;;;17.80;73.30;;;;;;5034531;28;20022;-69
2023/09/26 08:04:16;;;;;;;12.90;6.90;;;17.90;73.00;;;;;;5020098;28;20124;-69
2023/09/26 08:06:42;;;;;;;11.60;7.00;;;18.00;72.90;;;;;;5032804;28;20124;-68
2023/09/26 08:09:10;;;;;;;11.27;7.15;;;18.10;72.70;;;;;;5034839;28;20033;-68
2023/09/26 08:11:37;;;;;;;11.57;7.47;;;18.10;72.50;;;;;;5035506;28;20048;-68
2023/09/26 08:14:03;;;;;;;12.68;7.63;;;18.10;72.40;;;;;;5034070;28;20481;-68
2023/09/26 08:16:29;;;;;;;12.75;7.63;;;18.20;72.40;;;;;;5027671;28;20128;-68
2023/09/26 08:18:55;;;;;;;13.55;8.10;;;18.20;72.30;;;;;;5049291;28;20049;-68
2023/09/26 08:21:20;;;;;;;12.88;7.18;;;18.20;72.30;;;;;;5031507;28;20355;-68
2023/09/26 08:23:46;;;;;;;11.07;6.25;;;18.20;72.20;;;;;;5033536;28;20034;-68
2023/09/26 08:26:12;;;;;;;9.18;5.38;;;18.30;72.00;;;;;;5049757;28;20078;-68
2023/09/26 08:28:38;;;;;;;11.48;6.22;;;18.30;72.40;;;;;;5033638;28;20045;-68
2023/09/26 08:31:10;;;;;;;11.63;6.20;;;18.30;71.60;;;;;;5034699;28;20037;-68
2023/09/26 08:33:36;;;;;;;13.30;7.50;;;18.30;71.50;;;;;;5032699;28;20107;-68
2023/09/26 08:36:03;;;;;;;11.88;6.90;;;18.30;71.60;;;;;;5034125;28;20413;-68
2023/09/26 08:38:29;;;;;;;10.70;6.60;;;18.30;71.70;;;;;;5034415;28;20033;-68
2023/09/26 08:40:58;;;;;;;11.57;6.25;;;18.40;71.70;;;;;;5034430;28;20143;-68
2023/09/26 08:43:25;;;;;;;9.75;6.20;;;18.40;71.50;;;;;;5043932;28;20068;-67
2023/09/26 08:45:52;;;;;;;12.07;7.15;;;18.50;71.40;;;;;;5026856;28;20022;-68
2023/09/26 08:48:19;;;;;;;12.60;7.18;;;18.60;71.30;;;;;;5050203;28;20362;-68
2023/09/26 08:50:45;;;;;;;11.65;6.82;;;18.70;71.20;;;;;;5032423;28;20033;-68
2023/09/26 08:53:11;;;;;;;11.30;6.78;;;18.80;71.20;;;;;;5034237;28;20064;-68
2023/09/26 08:55:39;;;;;;;11.20;6.82;;;18.80;71.00;;;;;;5033642;28;20064;-69
2023/09/26 08:58:06;;;;;;;9.63;5.60;;;18.80;70.90;;;;;;5035099;28;20083;-68
2023/09/26 09:00:32;;;;;;;11.65;6.75;;;18.80;70.90;;;;;;5051827;28;20037;-69
2023/09/26 09:02:57;;;;;;;8.82;5.57;;;18.90;71.00;;;;;;5033394;28;20405;-69
2023/09/26 09:05:24;;;;;;;10.18;6.22;;;19.00;70.80;;;;;;5033584;28;20068;-68
2023/09/26 09:07:50;;;;;;;9.50;6.07;;;19.10;70.50;;;;;;5033099;28;20144;-69
2023/09/26 09:10:17;;;;;;;10.35;5.82;;;19.20;70.40;;;;;;5034374;28;20124;-69
2023/09/26 09:12:47;;;;;;;11.35;5.93;;;19.20;70.20;;;;;;5032767;28;20389;-69
2023/09/26 09:15:20;;;;;;;10.80;6.03;;;19.30;70.20;;;;;;5030645;28;20502;-69
2023/09/26 09:17:47;;;;;;;8.35;5.10;;;19.40;70.10;;;;;;5036040;28;20025;-69
2023/09/26 09:20:16;;;;;;;9.85;5.47;;;19.40;70.00;;;;;;5035596;28;20076;-69
2023/09/26 09:22:49;;;;;;;9.88;5.90;;;19.50;69.90;;;;;;5027795;28;20060;-69
2023/09/26 09:25:16;;;;;;;9.30;5.55;;;19.50;69.60;;;;;;5030926;28;20030;-69
2023/09/26 09:27:43;;;;;;;10.00;6.00;;;19.50;69.60;;;;;;5039831;28;20032;-69
2023/09/26 09:30:19;;;;;;;10.50;6.00;;;19.50;69.60;;;;;;5033015;28;20025;-69
2023/09/26 09:32:45;;;;;;;9.45;5.75;;;19.60;69.60;;;;;;5036599;28;20037;-69
2023/09/26 09:35:14;;;;;;;10.68;5.95;;;19.60;69.40;;;;;;5037339;28;20044;-69
2023/09/26 09:37:45;;;;;;;9.30;5.40;;;19.80;69.30;;;;;;5039866;28;20036;-69
2023/09/26 09:40:24;;;;;;;9.75;5.65;;;19.90;69.10;;;;;;5043395;28;20061;-69
2023/09/26 09:42:51;;;;;;;10.35;5.45;;;20.10;68.80;;;;;;5034314;28;20056;-69
2023/09/26 09:45:18;;;;;;;9.18;5.45;;;20.40;68.50;;;;;;5037925;28;20022;-69
2023/09/26 09:47:48;;;;;;;9.57;5.18;;;20.60;68.20;;;;;;5025165;28;20458;-70
2023/09/26 09:50:15;;;;;;;8.68;4.72;;;20.80;67.80;;;;;;5045508;28;21081;-70
2023/09/26 09:52:48;;;;;;;9.90;4.88;;;21.10;67.30;;;;;;5027629;28;20091;-70
2023/09/26 09:55:24;;;;;;;9.32;4.53;;;21.30;66.80;;;;;;5034857;28;20056;-70
2023/09/26 09:57:51;;;;;;;11.30;6.07;;;21.60;66.50;;;;;;5039883;28;20029;-70
2023/09/26 10:00:24;;;;;;;9.52;5.47;;;21.70;66.00;;;;;;5038288;28;20449;-70
2023/09/26 10:02:54;;;;;;;9.23;5.10;;;21.80;65.90;;;;;;5038443;28;20027;-70
2023/09/26 10:05:21;;;;;;;11.35;5.65;;;21.70;66.00;;;;;;5043272;28;20040;-70
2023/09/26 10:07:49;;;;;;;10.32;5.60;;;21.60;66.00;;;;;;5033156;28;20422;-65
2023/09/26 10:10:16;;;;;;;11.30;5.72;;;21.60;66.00;;;;;;5018569;28;20117;-65
2023/09/26 10:12:44;;;;;;;11.00;5.97;;;21.60;65.90;;;;;;5034580;28;20033;-65
2023/09/26 10:15:13;;;;;;;9.90;5.72;;;21.70;65.60;;;;;;5031076;28;20057;-65
2023/09/26 10:17:41;;;;;;;10.52;5.40;;;21.70;65.30;;;;;;5031608;28;20052;-65
2023/09/26 10:20:10;;;;;;;10.48;5.82;;;21.70;65.10;;;;;;5032659;28;20037;-66
2023/09/26 10:22:46;;;;;;;11.38;5.65;;;21.70;65.10;;;;;;5036627;28;20511;-65
2023/09/26 10:25:18;;;;;;;11.15;5.93;;;21.80;65.10;;;;;;5032632;28;20025;-65
2023/09/26 10:27:46;;;;;;;9.73;5.40;;;21.80;64.90;;;;;;5035447;28;20037;-65
2023/09/26 10:30:17;;;;;;;11.63;5.82;;;21.80;64.90;;;;;;5048361;28;20409;-64
2023/09/26 10:32:44;;;;;;;9.55;5.47;;;21.80;64.80;;;;;;5034776;28;20037;-65
2023/09/26 10:35:15;;;;;;;10.13;5.20;;;21.70;64.90;;;;;;5034438;28;20453;-65
2023/09/26 10:37:48;;;;;;;8.48;5.00;;;21.70;65.10;;;;;;5034491;28;20197;-65
2023/09/26 10:40:17;;;;;;;8.55;5.22;;;21.70;65.30;;;;;;5047535;28;20101;-65
2023/09/26 10:42:45;;;;;;;9.55;5.60;;;21.70;65.30;;;;;;5032934;28;20125;-65
2023/09/26 10:45:12;;;;;;;8.40;4.63;;;21.80;65.20;;;;;;5035126;28;20048;-65
2023/09/26 10:47:40;;;;;;;9.20;5.72;;;21.80;65.20;;;;;;5031967;28;20031;-65
2023/09/26 10:50:14;;;;;;;9.50;4.97;;;21.80;65.10;;;;;;5029478;28;20089;-65
2023/09/26 10:52:48;;;;;;;9.43;4.70;;;21.80;65.20;;;;;;5032393;28;20061;-65
2023/09/26 10:55:19;;;;;;;8.38;4.72;;;21.80;65.30;;;;;;5032619;28;20018;-65
2023/09/26 10:57:46;;;;;;;11.13;5.40;;;21.80;65.40;;;;;;5034861;28;20030;-65
2023/09/26 11:00:13;;;;;;;11.25;5.45;;;21.80;65.50;;;;;;5032202;28;20029;-65
2023/09/26 11:02:41;;;;;;;11.50;5.50;;;21.80;65.50;;;;;;5032975;28;20025;-64
2023/09/26 11:05:12;;;;;;;8.00;4.55;;;21.70;65.50;;;;;;5033065;28;20028;-64
2023/09/26 11:07:38;;;;;;;10.05;5.07;;;21.70;65.80;;;;;;5031054;28;20434;-64
2023/09/26 11:10:05;;;;;;;8.13;4.70;;;21.60;65.80;;;;;;5050069;28;20044;-64
2023/09/26 11:12:31;;;;;;;9.30;4.95;;;21.60;65.80;;;;;;5031431;28;20042;-64
2023/09/26 11:15:01;;;;;;;9.43;4.50;;;21.60;66.00;;;;;;5046517;28;20065;-64
2023/09/26 11:17:28;;;;;;;8.68;5.30;;;21.70;66.10;;;;;;5056188;28;20028;-64
2023/09/26 11:19:57;;;;;;;9.98;5.00;;;21.80;66.00;;;;;;5055765;28;20044;-64
2023/09/26 11:22:24;;;;;;;10.68;5.28;;;21.90;65.90;;;;;;5043660;28;20030;-64
2023/09/26 11:25:06;;;;;;;9.73;5.00;;;22.00;65.80;;;;;;5041759;28;20026;-64
2023/09/26 11:27:44;;;;;;;9.82;5.03;;;22.20;65.50;;;;;;5056244;28;20017;-64
2023/09/26 11:30:14;;;;;;;7.95;4.65;;;22.30;65.20;;;;;;5056847;28;20040;-64
2023/09/26 11:32:42;;;;;;;11.05;4.28;;;22.50;65.00;;;;;;5050355;28;20047;-64
2023/09/26 11:35:09;;;;;;;9.65;4.60;;;22.60;65.50;;;;;;5041321;28;20051;-64
2023/09/26 11:37:37;;;;;;;8.77;4.05;;;22.60;64.70;;;;;;5055330;28;20104;-64
2023/09/26 11:40:06;;;;;;;7.57;4.15;;;22.50;64.60;;;;;;5056567;28;20070;-64
2023/09/26 11:42:47;;;;;;;10.18;4.80;;;22.50;64.80;;;;;;5056493;28;20086;-64
2023/09/26 11:45:24;;;;;;;8.88;4.43;;;22.50;64.60;;;;;;5047936;28;20116;-64
2023/09/26 11:47:54;;;;;;;7.43;3.92;;;22.40;64.60;;;;;;5042692;28;20029;-64
2023/09/26 11:50:20;;;;;;;7.05;3.70;;;22.40;64.50;;;;;;5056280;28;20033;-64
2023/09/26 11:52:48;;;;;;;7.68;3.55;;;22.30;64.20;;;;;;5056116;28;20075;-64
2023/09/26 11:55:20;;;;;;;8.23;3.60;;;22.30;64.00;;;;;;5040197;28;20032;-64
2023/09/26 11:57:49;;;;;;;8.13;3.70;;;22.30;63.80;;;;;;5056217;28;20025;-64
2023/09/26 12:00:16;;;;;;;9.60;4.13;;;22.20;64.60;;;;;;5039969;28;20083;-64
2023/09/26 12:02:46;;;;;;;6.85;3.28;;;22.20;64.00;;;;;;5061124;28;20027;-66
2023/09/26 12:05:13;;;;;;;7.80;3.90;;;22.10;64.00;;;;;;5033815;28;20366;-64
2023/09/26 12:07:42;;;;;;;6.88;3.40;;;22.10;64.10;;;;;;5027991;28;20087;-64
2023/09/26 12:10:11;;;;;;;6.35;2.92;;;22.00;63.80;;;;;;5028617;28;20029;-64
2023/09/26 12:12:37;;;;;;;7.53;3.30;;;22.00;64.00;;;;;;5028049;28;20034;-64
2023/09/26 12:15:23;;;;;;;6.13;3.10;;;22.00;64.50;;;;;;5033451;28;20462;-64
2023/09/26 12:17:53;;;;;;;6.45;3.40;;;22.00;64.40;;;;;;5032206;28;20044;-64
2023/09/26 12:20:22;;;;;;;6.55;3.35;;;22.10;64.10;;;;;;5035138;28;20025;-64
2023/09/26 12:22:49;;;;;;;6.43;3.00;;;22.10;64.00;;;;;;5035864;28;20025;-64
2023/09/26 12:25:15;;;;;;;7.60;3.08;;;22.10;64.20;;;;;;5034382;28;20136;-64
2023/09/26 12:27:41;;;;;;;7.40;3.25;;;22.10;64.20;;;;;;5034633;28;20108;-64
2023/09/26 12:30:07;;;;;;;5.82;2.65;;;22.20;64.30;;;;;;5034597;28;20039;-64
2023/09/26 12:32:33;;;;;;;7.70;3.30;;;22.20;64.30;;;;;;5051075;28;20029;-64
2023/09/26 12:34:59;;;;;;;7.07;3.13;;;22.30;64.20;;;;;;5040097;28;20017;-64
2023/09/26 12:37:25;;;;;;;6.93;3.78;;;22.30;64.20;;;;;;5019011;28;20210;-64
2023/09/26 12:39:50;;;;;;;7.25;3.17;;;22.30;64.10;;;;;;5035532;28;20063;-64